createdAt,value
2018-04-08T00:00:10.817Z,23.32
2018-04-08T00:01:10.843Z,23.21
2018-04-08T00:02:10.872Z,23.29
2018-04-08T00:03:10.899Z,23.25
2018-04-08T00:04:10.924Z,23.26
2018-04-08T00:05:10.950Z,23.25
2018-04-08T00:06:10.978Z,23.26
2018-04-08T00:07:11.005Z,23.26
2018-04-08T00:08:11.031Z,23.29
2018-04-08T00:09:11.060Z,23.20
2018-04-08T00:10:11.086Z,23.32
2018-04-08T00:11:11.113Z,23.29
2018-04-08T00:12:11.140Z,23.34
2018-04-08T00:13:11.166Z,23.25
2018-04-08T00:14:11.193Z,23.23
2018-04-08T00:15:11.246Z,23.26
2018-04-08T00:16:11.247Z,23.33
2018-04-08T00:17:11.274Z,23.26
2018-04-08T00:18:11.302Z,23.37
2018-04-08T00:19:11.327Z,23.32
2018-04-08T00:20:11.370Z,23.32
2018-04-08T00:21:11.382Z,23.32
2018-04-08T00:22:11.409Z,23.36
2018-04-08T00:23:11.454Z,23.23
2018-04-08T00:24:11.462Z,23.28
2018-04-08T00:25:11.490Z,23.36
2018-04-08T00:26:11.520Z,23.26
2018-04-08T00:27:11.543Z,23.25
2018-04-08T00:28:11.570Z,23.37
2018-04-08T00:29:11.598Z,23.28
2018-04-08T00:30:11.625Z,23.32
2018-04-08T00:31:11.651Z,23.26
2018-04-08T00:32:11.679Z,23.28
2018-04-08T00:33:11.706Z,23.37
2018-04-08T00:34:11.732Z,23.32
2018-04-08T00:35:11.763Z,23.29
2018-04-08T00:36:11.788Z,23.21
2018-04-08T00:37:11.814Z,23.39
2018-04-08T00:38:11.852Z,23.25
2018-04-08T00:39:11.867Z,23.29
2018-04-08T00:40:11.895Z,23.37
2018-04-08T00:41:11.921Z,23.28
2018-04-08T00:42:11.948Z,23.36
2018-04-08T00:43:11.975Z,23.34
2018-04-08T00:44:12.004Z,23.28
2018-04-08T00:45:12.031Z,23.34
2018-04-08T00:46:12.057Z,23.39
2018-04-08T00:47:12.088Z,23.23
2018-04-08T00:48:12.109Z,23.40
2018-04-08T00:49:12.141Z,23.29
2018-04-08T00:50:12.164Z,23.37
2018-04-08T00:51:12.191Z,23.36
2018-04-08T00:52:12.218Z,23.28
2018-04-08T00:53:12.245Z,23.34
2018-04-08T00:54:12.272Z,23.28
2018-04-08T00:55:12.298Z,23.26
2018-04-08T00:56:12.325Z,23.28
2018-04-08T00:57:12.353Z,23.25
2018-04-08T00:58:12.379Z,23.36
2018-04-08T00:59:12.406Z,23.26
2018-04-08T01:00:12.433Z,23.34
2018-04-08T01:01:12.460Z,23.26
2018-04-08T01:02:12.487Z,23.21
2018-04-08T01:03:12.540Z,23.33
2018-04-08T01:04:12.542Z,23.33
2018-04-08T01:05:12.568Z,23.34
2018-04-08T01:06:12.596Z,23.26
2018-04-08T01:07:12.646Z,23.34
2018-04-08T01:08:12.648Z,23.34
2018-04-08T01:09:12.676Z,23.34
2018-04-08T01:10:12.703Z,23.26
2018-04-08T01:11:12.732Z,23.26
2018-04-08T01:12:12.758Z,23.23
2018-04-08T01:13:12.806Z,23.23
2018-04-08T01:14:12.811Z,23.32
2018-04-08T01:15:12.837Z,23.21
2018-04-08T01:16:12.867Z,23.26
2018-04-08T01:17:12.892Z,23.25
2018-04-08T01:18:12.918Z,23.29
2018-04-08T01:19:12.945Z,23.37
2018-04-08T01:20:12.972Z,23.32
2018-04-08T01:21:13.013Z,23.26
2018-04-08T01:22:13.026Z,23.34
2018-04-08T01:23:13.053Z,23.26
2018-04-08T01:24:13.080Z,23.33
2018-04-08T01:25:13.107Z,23.34
2018-04-08T01:26:13.135Z,23.36
2018-04-08T01:27:13.161Z,23.32
2018-04-08T01:28:13.188Z,23.18
2018-04-08T01:29:13.215Z,23.34
2018-04-08T01:30:13.242Z,23.28
2018-04-08T01:31:13.269Z,23.23
2018-04-08T01:32:13.296Z,23.18
2018-04-08T01:33:13.324Z,23.37
2018-04-08T01:34:13.350Z,23.34
2018-04-08T01:35:13.376Z,23.34
2018-04-08T01:36:13.403Z,23.26
2018-04-08T01:37:13.458Z,23.29
2018-04-08T01:38:13.458Z,23.29
2018-04-08T01:39:13.513Z,23.33
2018-04-08T01:40:13.512Z,23.32
2018-04-08T01:41:13.542Z,23.33
2018-04-08T01:42:13.568Z,23.29
2018-04-08T01:43:13.592Z,23.39
2018-04-08T01:44:13.619Z,23.28
2018-04-08T01:45:13.646Z,23.21
2018-04-08T01:46:13.674Z,23.26
2018-04-08T01:47:13.700Z,23.26
2018-04-08T01:48:13.727Z,23.29
2018-04-08T01:49:13.754Z,23.21
2018-04-08T01:50:13.826Z,23.32
2018-04-08T01:51:13.807Z,23.26
2018-04-08T01:52:13.835Z,23.25
2018-04-08T01:53:13.861Z,23.28
2018-04-08T01:54:13.890Z,23.23
2018-04-08T01:55:13.915Z,23.25
2018-04-08T01:56:13.946Z,23.26
2018-04-08T01:57:13.970Z,23.26
2018-04-08T01:58:13.998Z,23.29
2018-04-08T01:59:14.024Z,23.26
2018-04-08T02:00:14.050Z,23.28
2018-04-08T02:01:14.078Z,23.26
2018-04-08T02:02:14.105Z,23.29
2018-04-08T02:03:14.131Z,23.28
2018-04-08T02:04:14.159Z,23.34
2018-04-08T02:05:14.186Z,23.34
2018-04-08T02:06:14.212Z,23.34
2018-04-08T02:07:14.240Z,23.25
2018-04-08T02:08:14.266Z,23.33
2018-04-08T02:09:14.293Z,23.20
2018-04-08T02:10:14.321Z,23.34
2018-04-08T02:11:14.346Z,23.26
2018-04-08T02:12:14.384Z,23.25
2018-04-08T02:13:14.401Z,23.36
2018-04-08T02:14:14.429Z,23.28
2018-04-08T02:15:14.454Z,23.37
2018-04-08T02:16:14.485Z,23.29
2018-04-08T02:17:14.532Z,23.25
2018-04-08T02:18:14.536Z,23.28
2018-04-08T02:19:14.562Z,23.20
2018-04-08T02:20:14.590Z,23.36
2018-04-08T02:21:14.617Z,23.34
2018-04-08T02:22:14.647Z,23.28
2018-04-08T02:23:14.671Z,23.36
2018-04-08T02:24:14.709Z,23.37
2018-04-08T02:25:14.750Z,23.39
2018-04-08T02:26:14.752Z,23.21
2018-04-08T02:27:14.778Z,23.18
2018-04-08T02:28:14.832Z,23.29
2018-04-08T02:29:14.832Z,23.21
2018-04-08T02:30:14.861Z,23.23
2018-04-08T02:31:14.886Z,23.26
2018-04-08T02:32:14.914Z,23.36
2018-04-08T02:33:14.941Z,23.29
2018-04-08T02:34:14.969Z,23.18
2018-04-08T02:35:14.995Z,23.36
2018-04-08T02:36:15.021Z,23.18
2018-04-08T02:37:15.048Z,23.21
2018-04-08T02:38:15.077Z,23.28
2018-04-08T02:39:15.103Z,23.28
2018-04-08T02:40:15.128Z,23.36
2018-04-08T02:41:15.157Z,23.26
2018-04-08T02:42:15.183Z,23.40
2018-04-08T02:43:15.210Z,23.36
2018-04-08T02:44:15.237Z,23.36
2018-04-08T02:45:15.263Z,23.28
2018-04-08T02:46:15.294Z,23.36
2018-04-08T02:47:15.317Z,23.20
2018-04-08T02:48:15.346Z,23.32
2018-04-08T02:49:15.372Z,23.36
2018-04-08T02:50:15.400Z,23.32
2018-04-08T02:51:15.437Z,23.28
2018-04-08T02:52:15.453Z,23.26
2018-04-08T02:53:15.480Z,23.21
2018-04-08T02:54:15.507Z,23.32
2018-04-08T02:55:15.533Z,23.29
2018-04-08T02:56:15.561Z,23.36
2018-04-08T02:57:15.588Z,23.26
2018-04-08T02:58:15.614Z,23.25
2018-04-08T02:59:15.641Z,23.36
2018-04-08T03:00:15.668Z,23.28
2018-04-08T03:01:15.695Z,23.32
2018-04-08T03:02:15.723Z,23.26
2018-04-08T03:03:15.749Z,23.21
2018-04-08T03:04:15.799Z,23.34
2018-04-08T03:05:15.805Z,23.36
2018-04-08T03:06:15.831Z,23.26
2018-04-08T03:07:15.858Z,23.25
2018-04-08T03:08:15.883Z,23.28
2018-04-08T03:09:15.911Z,23.28
2018-04-08T03:10:15.939Z,23.20
2018-04-08T03:11:15.967Z,23.21
2018-04-08T03:12:15.991Z,23.29
2018-04-08T03:13:16.019Z,23.28
2018-04-08T03:14:16.045Z,23.17
2018-04-08T03:15:16.072Z,23.25
2018-04-08T03:16:16.099Z,23.18
2018-04-08T03:17:16.130Z,23.21
2018-04-08T03:18:16.154Z,23.25
2018-04-08T03:19:16.180Z,23.26
2018-04-08T03:20:16.207Z,23.23
2018-04-08T03:21:16.234Z,23.21
2018-04-08T03:22:16.261Z,23.25
2018-04-08T03:23:16.288Z,23.26
2018-04-08T03:24:16.316Z,23.23
2018-04-08T03:25:16.342Z,23.32
2018-04-08T03:26:16.370Z,23.21
2018-04-08T03:27:16.398Z,23.26
2018-04-08T03:28:16.422Z,23.28
2018-04-08T03:29:16.449Z,23.36
2018-04-08T03:30:16.484Z,23.25
2018-04-08T03:31:16.512Z,23.33
2018-04-08T03:32:16.530Z,23.23
2018-04-08T03:33:16.561Z,23.26
2018-04-08T03:34:16.585Z,23.26
2018-04-08T03:35:16.653Z,23.20
2018-04-08T03:36:16.638Z,23.23
2018-04-08T03:37:16.665Z,23.28
2018-04-08T03:38:16.692Z,23.28
2018-04-08T03:39:16.719Z,23.32
2018-04-08T03:40:16.746Z,23.39
2018-04-08T03:41:16.778Z,23.29
2018-04-08T03:42:16.800Z,23.37
2018-04-08T03:43:16.826Z,23.21
2018-04-08T03:44:16.853Z,23.36
2018-04-08T03:45:16.906Z,23.32
2018-04-08T03:46:16.908Z,23.28
2018-04-08T03:47:16.936Z,23.21
2018-04-08T03:48:16.963Z,23.29
2018-04-08T03:49:16.988Z,23.26
2018-04-08T03:50:17.016Z,23.36
2018-04-08T03:51:17.042Z,23.33
2018-04-08T03:52:17.068Z,23.37
2018-04-08T03:53:17.095Z,23.37
2018-04-08T03:54:17.123Z,23.23
2018-04-08T03:55:17.152Z,23.39
2018-04-08T03:56:17.176Z,23.34
2018-04-08T03:57:17.204Z,23.28
2018-04-08T03:58:17.231Z,23.32
2018-04-08T03:59:17.257Z,23.33
2018-04-08T04:00:17.285Z,23.28
2018-04-08T04:01:17.311Z,23.18
2018-04-08T04:02:17.356Z,23.32
2018-04-08T04:03:17.365Z,23.36
2018-04-08T04:04:17.392Z,23.33
2018-04-08T04:05:17.431Z,23.34
2018-04-08T04:06:17.446Z,23.32
2018-04-08T04:07:17.472Z,23.28
2018-04-08T04:08:17.499Z,23.36
2018-04-08T04:09:17.528Z,23.40
2018-04-08T04:10:17.554Z,23.29
2018-04-08T04:11:17.581Z,23.33
2018-04-08T04:12:17.609Z,23.33
2018-04-08T04:13:17.635Z,23.29
2018-04-08T04:14:17.662Z,23.34
2018-04-08T04:15:17.688Z,23.42
2018-04-08T04:16:17.715Z,23.29
2018-04-08T04:17:17.743Z,23.37
2018-04-08T04:18:17.771Z,23.33
2018-04-08T04:19:17.796Z,23.44
2018-04-08T04:20:17.823Z,23.33
2018-04-08T04:21:17.854Z,23.42
2018-04-08T04:22:17.878Z,23.34
2018-04-08T04:23:17.904Z,23.42
2018-04-08T04:24:17.931Z,23.45
2018-04-08T04:25:17.958Z,23.42
2018-04-08T04:26:17.985Z,23.34
2018-04-08T04:27:18.012Z,23.45
2018-04-08T04:28:18.039Z,23.40
2018-04-08T04:29:18.066Z,23.33
2018-04-08T04:30:18.093Z,23.42
2018-04-08T04:31:18.120Z,23.37
2018-04-08T04:32:18.147Z,23.39
2018-04-08T04:33:18.175Z,23.40
2018-04-08T04:34:18.201Z,23.45
2018-04-08T04:35:18.227Z,23.40
2018-04-08T04:36:18.255Z,23.47
2018-04-08T04:37:18.282Z,23.40
2018-04-08T04:38:18.308Z,23.44
2018-04-08T04:39:18.335Z,23.45
2018-04-08T04:40:18.362Z,23.44
2018-04-08T04:41:18.389Z,23.40
2018-04-08T04:42:18.417Z,23.44
2018-04-08T04:43:18.442Z,23.42
2018-04-08T04:44:18.473Z,23.42
2018-04-08T04:45:18.498Z,23.44
2018-04-08T04:46:18.524Z,23.42
2018-04-08T04:47:18.553Z,23.52
2018-04-08T04:48:18.577Z,23.49
2018-04-08T04:49:18.605Z,23.49
2018-04-08T04:50:18.633Z,23.48
2018-04-08T04:51:18.677Z,23.47
2018-04-08T04:52:18.686Z,23.48
2018-04-08T04:53:18.713Z,23.48
2018-04-08T04:54:18.741Z,23.56
2018-04-08T04:55:18.766Z,23.51
2018-04-08T04:56:18.795Z,23.48
2018-04-08T04:57:18.821Z,23.49
2018-04-08T04:58:18.880Z,23.44
2018-04-08T04:59:18.874Z,23.44
2018-04-08T05:00:18.902Z,23.49
2018-04-08T05:01:18.928Z,23.45
2018-04-08T05:02:18.956Z,23.47
2018-04-08T05:03:19.012Z,23.48
2018-04-08T05:04:19.010Z,23.51
2018-04-08T05:05:19.037Z,23.47
2018-04-08T05:06:19.064Z,23.49
2018-04-08T05:07:19.090Z,23.55
2018-04-08T05:08:19.118Z,23.49
2018-04-08T05:09:19.147Z,23.49
2018-04-08T05:10:19.172Z,23.45
2018-04-08T05:11:19.204Z,23.52
2018-04-08T05:12:19.227Z,23.54
2018-04-08T05:13:19.253Z,23.51
2018-04-08T05:14:19.282Z,23.42
2018-04-08T05:15:19.306Z,23.45
2018-04-08T05:16:19.333Z,23.52
2018-04-08T05:17:19.361Z,23.49
2018-04-08T05:18:19.388Z,23.56
2018-04-08T05:19:19.414Z,23.44
2018-04-08T05:20:19.464Z,23.52
2018-04-08T05:21:19.470Z,23.48
2018-04-08T05:22:19.495Z,23.51
2018-04-08T05:23:19.522Z,23.54
2018-04-08T05:24:19.548Z,23.56
2018-04-08T05:25:19.576Z,23.48
2018-04-08T05:26:19.603Z,23.49
2018-04-08T05:27:19.630Z,23.45
2018-04-08T05:28:19.656Z,23.55
2018-04-08T05:29:19.684Z,23.55
2018-04-08T05:30:19.718Z,23.58
2018-04-08T05:31:19.742Z,23.45
2018-04-08T05:32:19.764Z,23.54
2018-04-08T05:33:19.792Z,23.52
2018-04-08T05:34:19.819Z,23.54
2018-04-08T05:35:19.846Z,23.52
2018-04-08T05:36:19.876Z,23.49
2018-04-08T05:37:19.900Z,23.52
2018-04-08T05:38:19.939Z,23.51
2018-04-08T05:39:19.973Z,23.47
2018-04-08T05:40:19.980Z,23.44
2018-04-08T05:41:20.017Z,23.49
2018-04-08T05:42:20.051Z,23.49
2018-04-08T05:43:20.061Z,23.51
2018-04-08T05:44:20.089Z,23.52
2018-04-08T05:45:20.115Z,23.54
2018-04-08T05:46:20.147Z,23.47
2018-04-08T05:47:20.169Z,23.49
2018-04-08T05:48:20.196Z,23.48
2018-04-08T05:49:20.224Z,23.51
2018-04-08T05:50:20.251Z,23.48
2018-04-08T05:51:20.278Z,23.48
2018-04-08T05:52:20.305Z,23.48
2018-04-08T05:53:20.331Z,23.49
2018-04-08T05:54:20.360Z,23.47
2018-04-08T05:55:20.386Z,23.54
2018-04-08T05:56:20.414Z,23.48
2018-04-08T05:57:20.439Z,23.45
2018-04-08T05:58:20.470Z,23.51
2018-04-08T05:59:20.492Z,23.49
2018-04-08T06:00:20.520Z,23.48
2018-04-08T06:01:20.547Z,23.42
2018-04-08T06:02:20.574Z,23.45
2018-04-08T06:03:20.600Z,23.48
2018-04-08T06:04:20.628Z,23.51
2018-04-08T06:05:20.657Z,23.47
2018-04-08T06:06:20.682Z,23.45
2018-04-08T06:07:20.708Z,23.51
2018-04-08T06:08:20.736Z,23.45
2018-04-08T06:09:20.793Z,23.45
2018-04-08T06:10:20.791Z,23.45
2018-04-08T06:11:20.817Z,23.45
2018-04-08T06:12:20.844Z,23.52
2018-04-08T06:13:20.871Z,23.51
2018-04-08T06:14:20.900Z,23.48
2018-04-08T06:15:20.925Z,23.58
2018-04-08T06:16:20.952Z,23.51
2018-04-08T06:17:21.011Z,23.56
2018-04-08T06:18:21.007Z,23.52
2018-04-08T06:19:21.033Z,23.47
2018-04-08T06:20:21.060Z,23.49
2018-04-08T06:21:21.086Z,23.52
2018-04-08T06:22:21.116Z,23.56
2018-04-08T06:23:21.145Z,23.58
2018-04-08T06:24:21.168Z,23.63
2018-04-08T06:25:21.230Z,23.56
2018-04-08T06:26:21.223Z,23.56
2018-04-08T06:27:21.249Z,23.54
2018-04-08T06:28:21.275Z,23.58
2018-04-08T06:29:21.304Z,23.54
2018-04-08T06:30:21.335Z,23.56
2018-04-08T06:31:21.391Z,23.49
2018-04-08T06:32:21.406Z,23.63
2018-04-08T06:33:21.412Z,23.54
2018-04-08T06:34:21.439Z,23.52
2018-04-08T06:35:21.466Z,23.64
2018-04-08T06:36:21.492Z,23.51
2018-04-08T06:37:21.520Z,23.59
2018-04-08T06:38:21.560Z,23.59
2018-04-08T06:39:21.574Z,23.54
2018-04-08T06:40:21.599Z,23.56
2018-04-08T06:41:21.627Z,23.59
2018-04-08T06:42:21.655Z,23.56
2018-04-08T06:43:21.681Z,23.54
2018-04-08T06:44:21.708Z,23.62
2018-04-08T06:45:21.736Z,23.58
2018-04-08T06:46:21.762Z,23.58
2018-04-08T06:47:21.789Z,23.62
2018-04-08T06:48:21.817Z,23.56
2018-04-08T06:49:21.868Z,23.69
2018-04-08T06:50:21.871Z,23.56
2018-04-08T06:51:21.900Z,23.63
2018-04-08T06:52:21.924Z,23.69
2018-04-08T06:53:21.952Z,23.63
2018-04-08T06:54:21.979Z,23.70
2018-04-08T06:55:22.008Z,23.69
2018-04-08T06:56:22.033Z,23.63
2018-04-08T06:57:22.060Z,23.64
2018-04-08T06:58:22.123Z,23.66
2018-04-08T06:59:22.113Z,23.59
2018-04-08T07:00:22.141Z,23.64
2018-04-08T07:01:22.168Z,23.58
2018-04-08T07:02:22.198Z,23.66
2018-04-08T07:03:22.222Z,23.66
2018-04-08T07:04:22.248Z,23.70
2018-04-08T07:05:22.276Z,23.71
2018-04-08T07:06:22.303Z,23.79
2018-04-08T07:07:22.329Z,23.70
2018-04-08T07:08:22.359Z,23.70
2018-04-08T07:09:22.384Z,23.69
2018-04-08T07:10:22.412Z,23.77
2018-04-08T07:11:22.438Z,23.79
2018-04-08T07:12:22.467Z,23.71
2018-04-08T07:13:22.491Z,23.74
2018-04-08T07:14:22.519Z,23.79
2018-04-08T07:15:22.548Z,23.73
2018-04-08T07:16:22.573Z,23.71
2018-04-08T07:17:22.600Z,23.74
2018-04-08T07:18:22.653Z,23.71
2018-04-08T07:19:22.654Z,23.71
2018-04-08T07:20:22.681Z,23.67
2018-04-08T07:21:22.709Z,23.73
2018-04-08T07:22:22.736Z,23.76
2018-04-08T07:23:22.762Z,23.77
2018-04-08T07:24:22.789Z,23.73
2018-04-08T07:25:22.816Z,23.73
2018-04-08T07:26:22.844Z,23.76
2018-04-08T07:27:22.870Z,23.71
2018-04-08T07:28:22.898Z,23.81
2018-04-08T07:29:22.925Z,23.82
2018-04-08T07:30:22.952Z,23.70
2018-04-08T07:31:22.978Z,23.73
2018-04-08T07:32:23.006Z,23.82
2018-04-08T07:33:23.033Z,23.67
2018-04-08T07:34:23.065Z,23.73
2018-04-08T07:35:23.090Z,23.70
2018-04-08T07:36:23.115Z,23.70
2018-04-08T07:37:23.145Z,23.79
2018-04-08T07:38:23.168Z,23.71
2018-04-08T07:39:23.195Z,23.81
2018-04-08T07:40:23.222Z,23.82
2018-04-08T07:41:23.250Z,23.81
2018-04-08T07:42:23.276Z,23.77
2018-04-08T07:43:23.303Z,23.74
2018-04-08T07:44:23.331Z,23.76
2018-04-08T07:45:23.358Z,23.85
2018-04-08T07:46:23.386Z,23.76
2018-04-08T07:47:23.411Z,23.79
2018-04-08T07:48:23.439Z,23.77
2018-04-08T07:49:23.466Z,23.70
2018-04-08T07:50:23.503Z,23.89
2018-04-08T07:51:23.519Z,23.84
2018-04-08T07:52:23.547Z,23.71
2018-04-08T07:53:23.574Z,23.82
2018-04-08T07:54:23.603Z,23.79
2018-04-08T07:55:23.628Z,23.82
2018-04-08T07:56:23.655Z,23.84
2018-04-08T07:57:23.685Z,23.76
2018-04-08T07:58:23.711Z,23.82
2018-04-08T07:59:23.737Z,23.79
2018-04-08T08:00:23.764Z,23.86
2018-04-08T08:01:23.791Z,23.84
2018-04-08T08:02:23.819Z,23.85
2018-04-08T08:03:23.845Z,23.85
2018-04-08T08:04:23.873Z,23.99
2018-04-08T08:05:23.938Z,23.84
2018-04-08T08:06:23.937Z,23.95
2018-04-08T08:07:23.956Z,23.92
2018-04-08T08:08:23.980Z,23.91
2018-04-08T08:09:24.009Z,23.95
2018-04-08T08:10:24.036Z,23.89
2018-04-08T08:11:24.064Z,23.91
2018-04-08T08:12:24.122Z,23.91
2018-04-08T08:13:24.117Z,23.94
2018-04-08T08:14:24.145Z,23.91
2018-04-08T08:15:24.169Z,24.01
2018-04-08T08:16:24.198Z,24.00
2018-04-08T08:17:24.240Z,23.95
2018-04-08T08:18:24.252Z,23.94
2018-04-08T08:19:24.279Z,23.99
2018-04-08T08:20:24.306Z,23.99
2018-04-08T08:21:24.334Z,23.96
2018-04-08T08:22:24.361Z,23.92
2018-04-08T08:23:24.388Z,23.91
2018-04-08T08:24:24.416Z,23.94
2018-04-08T08:25:24.444Z,23.92
2018-04-08T08:26:24.470Z,23.91
2018-04-08T08:27:24.496Z,24.00
2018-04-08T08:28:24.525Z,24.01
2018-04-08T08:29:24.551Z,23.99
2018-04-08T08:30:24.579Z,23.99
2018-04-08T08:31:24.605Z,24.04
2018-04-08T08:32:24.632Z,23.99
2018-04-08T08:33:24.660Z,24.04
2018-04-08T08:34:24.688Z,24.07
2018-04-08T08:35:24.713Z,24.04
2018-04-08T08:36:24.742Z,24.13
2018-04-08T08:37:24.768Z,24.06
2018-04-08T08:38:24.796Z,24.07
2018-04-08T08:39:24.822Z,24.11
2018-04-08T08:40:24.849Z,24.09
2018-04-08T08:41:24.877Z,24.07
2018-04-08T08:42:24.905Z,24.09
2018-04-08T08:43:24.931Z,24.18
2018-04-08T08:44:24.962Z,24.13
2018-04-08T08:45:24.986Z,24.14
2018-04-08T08:46:25.013Z,24.11
2018-04-08T08:47:25.040Z,24.16
2018-04-08T08:48:25.068Z,24.19
2018-04-08T08:49:25.095Z,24.21
2018-04-08T08:50:25.140Z,24.13
2018-04-08T08:51:25.149Z,24.28
2018-04-08T08:52:25.176Z,24.21
2018-04-08T08:53:25.204Z,24.28
2018-04-08T08:54:25.231Z,24.28
2018-04-08T08:55:25.258Z,24.16
2018-04-08T08:56:25.314Z,24.18
2018-04-08T08:57:25.316Z,24.31
2018-04-08T08:58:25.341Z,24.18
2018-04-08T08:59:25.397Z,24.36
2018-04-08T09:00:25.411Z,24.29
2018-04-08T09:01:25.421Z,24.29
2018-04-08T09:02:25.449Z,24.36
2018-04-08T09:03:25.476Z,24.31
2018-04-08T09:04:25.504Z,24.36
2018-04-08T09:05:25.531Z,24.25
2018-04-08T09:06:25.578Z,24.26
2018-04-08T09:07:25.588Z,24.31
2018-04-08T09:08:25.612Z,24.34
2018-04-08T09:09:25.642Z,24.28
2018-04-08T09:10:25.682Z,24.34
2018-04-08T09:11:25.698Z,24.26
2018-04-08T09:12:25.721Z,24.28
2018-04-08T09:13:25.748Z,24.36
2018-04-08T09:14:25.776Z,24.29
2018-04-08T09:15:25.803Z,24.34
2018-04-08T09:16:25.854Z,24.36
2018-04-08T09:17:25.914Z,24.40
2018-04-08T09:18:25.886Z,24.40
2018-04-08T09:19:25.912Z,24.37
2018-04-08T09:20:25.943Z,24.43
2018-04-08T09:21:25.967Z,24.44
2018-04-08T09:22:25.995Z,24.37
2018-04-08T09:23:26.021Z,24.41
2018-04-08T09:24:26.049Z,24.29
2018-04-08T09:25:26.076Z,24.46
2018-04-08T09:26:26.150Z,24.31
2018-04-08T09:27:26.130Z,24.36
2018-04-08T09:28:26.157Z,24.44
2018-04-08T09:29:26.186Z,24.40
2018-04-08T09:30:26.217Z,24.44
2018-04-08T09:31:26.326Z,24.51
2018-04-08T09:32:26.267Z,24.44
2018-04-08T09:33:26.294Z,24.47
2018-04-08T09:34:26.322Z,24.50
2018-04-08T09:35:26.349Z,24.31
2018-04-08T09:36:26.447Z,24.44
2018-04-08T09:37:26.423Z,24.47
2018-04-08T09:38:26.437Z,24.47
2018-04-08T09:39:26.459Z,24.46
2018-04-08T09:40:26.486Z,24.50
2018-04-08T09:41:26.513Z,24.40
2018-04-08T09:42:26.542Z,24.46
2018-04-08T09:43:26.572Z,24.50
2018-04-08T09:44:26.597Z,24.50
2018-04-08T09:45:26.627Z,24.50
2018-04-08T09:46:26.649Z,24.46
2018-04-08T09:47:26.677Z,24.44
2018-04-08T09:48:26.704Z,24.53
2018-04-08T09:49:26.732Z,24.48
2018-04-08T09:50:26.760Z,24.40
2018-04-08T09:51:26.786Z,24.58
2018-04-08T09:52:26.813Z,24.48
2018-04-08T09:53:26.846Z,24.51
2018-04-08T09:54:26.869Z,24.51
2018-04-08T09:55:26.895Z,24.51
2018-04-08T09:56:26.923Z,24.51
2018-04-08T09:57:26.950Z,24.55
2018-04-08T09:58:26.978Z,24.51
2018-04-08T09:59:27.004Z,24.51
2018-04-08T10:00:27.032Z,24.43
2018-04-08T10:01:27.061Z,24.55
2018-04-08T10:02:27.087Z,24.48
2018-04-08T10:03:27.113Z,24.44
2018-04-08T10:04:27.141Z,24.53
2018-04-08T10:05:27.228Z,24.47
2018-04-08T10:06:27.197Z,24.50
2018-04-08T10:07:27.223Z,24.56
2018-04-08T10:08:27.250Z,24.47
2018-04-08T10:09:27.297Z,24.50
2018-04-08T10:10:27.347Z,24.50
2018-04-08T10:11:27.332Z,24.47
2018-04-08T10:12:27.362Z,24.51
2018-04-08T10:13:27.388Z,24.58
2018-04-08T10:14:27.415Z,24.48
2018-04-08T10:15:27.442Z,24.59
2018-04-08T10:16:27.484Z,24.55
2018-04-08T10:17:27.498Z,24.58
2018-04-08T10:18:27.527Z,24.48
2018-04-08T10:19:27.551Z,24.50
2018-04-08T10:20:27.612Z,24.55
2018-04-08T10:21:27.656Z,24.47
2018-04-08T10:22:27.635Z,24.55
2018-04-08T10:23:27.663Z,24.58
2018-04-08T10:24:27.689Z,24.51
2018-04-08T10:25:27.724Z,24.44
2018-04-08T10:26:27.744Z,24.50
2018-04-08T10:27:27.770Z,24.48
2018-04-08T10:28:27.798Z,24.55
2018-04-08T10:29:27.831Z,24.48
2018-04-08T10:30:27.854Z,24.50
2018-04-08T10:31:27.908Z,24.55
2018-04-08T10:32:27.908Z,24.56
2018-04-08T10:33:27.938Z,24.56
2018-04-08T10:34:27.997Z,24.44
2018-04-08T10:35:27.990Z,24.47
2018-04-08T10:36:28.048Z,24.50
2018-04-08T10:37:28.044Z,24.51
2018-04-08T10:38:28.072Z,24.55
2018-04-08T10:39:28.099Z,24.51
2018-04-08T10:40:28.127Z,24.48
2018-04-08T10:41:28.154Z,24.53
2018-04-08T10:42:28.182Z,24.51
2018-04-08T10:43:28.211Z,24.53
2018-04-08T10:44:28.236Z,24.53
2018-04-08T10:45:28.265Z,24.56
2018-04-08T10:46:28.291Z,24.53
2018-04-08T10:47:28.318Z,24.51
2018-04-08T10:48:28.346Z,24.46
2018-04-08T10:49:28.373Z,24.55
2018-04-08T10:50:28.400Z,24.53
2018-04-08T10:51:28.427Z,24.51
2018-04-08T10:52:28.455Z,24.48
2018-04-08T10:53:28.482Z,24.50
2018-04-08T10:54:28.510Z,24.53
2018-04-08T10:55:28.537Z,24.46
2018-04-08T10:56:28.587Z,24.44
2018-04-08T10:57:28.607Z,24.48
2018-04-08T10:58:28.621Z,24.50
2018-04-08T10:59:28.646Z,24.51
2018-04-08T11:00:28.674Z,24.56
2018-04-08T11:01:28.702Z,24.51
2018-04-08T11:02:28.731Z,24.48
2018-04-08T11:03:28.755Z,24.46
2018-04-08T11:04:28.786Z,24.44
2018-04-08T11:05:28.853Z,24.46
2018-04-08T11:06:28.842Z,24.50
2018-04-08T11:07:28.904Z,24.50
2018-04-08T11:08:28.893Z,24.48
2018-04-08T11:09:28.954Z,24.41
2018-04-08T11:10:28.948Z,24.40
2018-04-08T11:11:28.974Z,24.40
2018-04-08T11:12:29.002Z,24.44
2018-04-08T11:13:29.032Z,24.48
2018-04-08T11:14:29.057Z,24.46
2018-04-08T11:15:29.090Z,24.38
2018-04-08T11:16:29.111Z,24.47
2018-04-08T11:17:29.139Z,24.43
2018-04-08T11:18:29.166Z,24.40
2018-04-08T11:19:29.232Z,24.46
2018-04-08T11:20:29.221Z,24.40
2018-04-08T11:21:29.285Z,24.47
2018-04-08T11:22:29.289Z,24.38
2018-04-08T11:23:29.302Z,24.47
2018-04-08T11:24:29.370Z,24.41
2018-04-08T11:25:29.359Z,24.26
2018-04-08T11:26:29.387Z,24.41
2018-04-08T11:27:29.418Z,24.46
2018-04-08T11:28:29.439Z,24.37
2018-04-08T11:29:29.466Z,24.41
2018-04-08T11:30:29.497Z,24.37
2018-04-08T11:31:29.522Z,24.36
2018-04-08T11:32:29.548Z,24.31
2018-04-08T11:33:29.577Z,24.40
2018-04-08T11:34:29.604Z,24.37
2018-04-08T11:35:29.633Z,24.40
2018-04-08T11:36:29.663Z,24.40
2018-04-08T11:37:29.686Z,24.43
2018-04-08T11:38:29.713Z,24.37
2018-04-08T11:39:29.741Z,24.34
2018-04-08T11:40:29.768Z,24.34
2018-04-08T11:41:29.796Z,24.37
2018-04-08T11:42:29.861Z,24.38
2018-04-08T11:43:29.849Z,24.41
2018-04-08T11:44:29.877Z,24.38
2018-04-08T11:45:29.904Z,24.37
2018-04-08T11:46:29.936Z,24.38
2018-04-08T11:47:29.959Z,24.37
2018-04-08T11:48:29.986Z,24.25
2018-04-08T11:49:30.015Z,24.29
2018-04-08T11:50:30.052Z,24.32
2018-04-08T11:51:30.068Z,24.32
2018-04-08T11:52:30.118Z,24.28
2018-04-08T11:53:30.123Z,24.32
2018-04-08T11:54:30.186Z,24.31
2018-04-08T11:55:30.177Z,24.34
2018-04-08T11:56:30.204Z,24.29
2018-04-08T11:57:30.240Z,24.28
2018-04-08T11:58:30.259Z,24.34
2018-04-08T11:59:30.286Z,24.29
2018-04-08T12:00:30.314Z,24.38
2018-04-08T12:01:30.341Z,24.29
2018-04-08T12:02:30.370Z,24.31
2018-04-08T12:03:30.397Z,24.29
2018-04-08T12:04:30.440Z,24.24
2018-04-08T12:05:30.450Z,24.29
2018-04-08T12:06:30.481Z,24.28
2018-04-08T12:07:30.504Z,24.32
2018-04-08T12:08:30.532Z,24.24
2018-04-08T12:09:30.560Z,24.32
2018-04-08T12:10:30.587Z,24.29
2018-04-08T12:11:30.630Z,24.40
2018-04-08T12:12:30.642Z,24.37
2018-04-08T12:13:30.669Z,24.36
2018-04-08T12:14:30.696Z,24.38
2018-04-08T12:15:30.723Z,24.37
2018-04-08T12:16:30.751Z,24.37
2018-04-08T12:17:30.779Z,24.36
2018-04-08T12:18:30.822Z,24.37
2018-04-08T12:19:30.833Z,24.38
2018-04-08T12:20:30.861Z,24.37
2018-04-08T12:21:30.888Z,24.41
2018-04-08T12:22:30.915Z,24.36
2018-04-08T12:23:30.942Z,24.36
2018-04-08T12:24:30.969Z,24.36
2018-04-08T12:25:30.996Z,24.38
2018-04-08T12:26:31.025Z,24.37
2018-04-08T12:27:31.051Z,24.34
2018-04-08T12:28:31.098Z,24.38
2018-04-08T12:29:31.107Z,24.38
2018-04-08T12:30:31.134Z,24.38
2018-04-08T12:31:31.172Z,24.43
2018-04-08T12:32:31.188Z,24.46
2018-04-08T12:33:31.215Z,24.36
2018-04-08T12:34:31.244Z,24.37
2018-04-08T12:35:31.273Z,24.31
2018-04-08T12:36:31.302Z,24.32
2018-04-08T12:37:31.325Z,24.44
2018-04-08T12:38:31.354Z,24.32
2018-04-08T12:39:31.378Z,24.38
2018-04-08T12:40:31.406Z,24.37
2018-04-08T12:41:31.434Z,24.38
2018-04-08T12:42:31.462Z,24.38
2018-04-08T12:43:31.519Z,24.46
2018-04-08T12:44:31.520Z,24.31
2018-04-08T12:45:31.559Z,24.37
2018-04-08T12:46:31.576Z,24.37
2018-04-08T12:47:31.627Z,24.41
2018-04-08T12:48:31.625Z,24.37
2018-04-08T12:49:31.658Z,24.38
2018-04-08T12:50:31.703Z,24.40
2018-04-08T12:51:31.707Z,24.34
2018-04-08T12:52:31.735Z,24.43